<?xml version="1.0" encoding="UTF-8" standalone="no" ?>
<gpx xmlns="http://www.topografix.com/GPX/1/1" xmlns:xsi="http://www.w3.org/2001/XMLSchema-instance" xsi:schemaLocation="http://www.topografix.com/GPX/1/1 http://www.topografix.com/GPX/1/1/gpx.xsd" version="1.1" creator="VisuGPX - https://www.visugpx.com">
  <metadata>
    <name>Course La Sainloupienne</name>
    <desc><![CDATA[Parcours de la boucle de course à pied de St Loup Cammas en version 5km]]></desc>
  </metadata>
  <trk>
    <name><![CDATA[13329072-La Sainloupienne 2021]]></name>
    <trkseg>
      <trkpt lat="43.69652" lon="1.48018">
        <ele>211</ele>
        <time>2022-10-08T12:51:43Z</time>
      </trkpt>
      <trkpt lat="43.69668" lon="1.47955">
        <ele>211</ele>
        <time>2022-10-08T12:51:59Z</time>
      </trkpt>
      <trkpt lat="43.6967" lon="1.47947">
        <ele>211</ele>
        <time>2022-10-08T12:52:01Z</time>
      </trkpt>
      <trkpt lat="43.69664" lon="1.47944">
        <ele>211</ele>
        <time>2022-10-08T12:52:03Z</time>
      </trkpt>
      <trkpt lat="43.69648" lon="1.47939">
        <ele>211</ele>
        <time>2022-10-08T12:52:09Z</time>
      </trkpt>
      <trkpt lat="43.69618" lon="1.47938">
        <ele>211</ele>
        <time>2022-10-08T12:52:19Z</time>
      </trkpt>
      <trkpt lat="43.69603" lon="1.47932">
        <ele>211</ele>
        <time>2022-10-08T12:52:24Z</time>
      </trkpt>
      <trkpt lat="43.696" lon="1.4794">
        <ele>211</ele>
        <time>2022-10-08T12:52:26Z</time>
      </trkpt>
      <trkpt lat="43.69579" lon="1.47969">
        <ele>211</ele>
        <time>2022-10-08T12:52:36Z</time>
      </trkpt>
      <trkpt lat="43.69563" lon="1.47967">
        <ele>210</ele>
        <time>2022-10-08T12:52:41Z</time>
      </trkpt>
      <trkpt lat="43.69557" lon="1.47964">
        <ele>210</ele>
        <time>2022-10-08T12:52:44Z</time>
      </trkpt>
      <trkpt lat="43.69531" lon="1.47942">
        <ele>209</ele>
        <time>2022-10-08T12:52:54Z</time>
      </trkpt>
      <trkpt lat="43.69502" lon="1.47904">
        <ele>207</ele>
        <time>2022-10-08T12:53:07Z</time>
      </trkpt>
      <trkpt lat="43.69497" lon="1.479">
        <ele>206</ele>
        <time>2022-10-08T12:53:09Z</time>
      </trkpt>
      <trkpt lat="43.69492" lon="1.479">
        <ele>206</ele>
        <time>2022-10-08T12:53:11Z</time>
      </trkpt>
      <trkpt lat="43.69488" lon="1.47887">
        <ele>205</ele>
        <time>2022-10-08T12:53:14Z</time>
      </trkpt>
      <trkpt lat="43.69482" lon="1.47881">
        <ele>205</ele>
        <time>2022-10-08T12:53:17Z</time>
      </trkpt>
      <trkpt lat="43.69457" lon="1.47879">
        <ele>203</ele>
        <time>2022-10-08T12:53:25Z</time>
      </trkpt>
      <trkpt lat="43.69438" lon="1.47881">
        <ele>201</ele>
        <time>2022-10-08T12:53:31Z</time>
      </trkpt>
      <trkpt lat="43.69426" lon="1.47865">
        <ele>199</ele>
        <time>2022-10-08T12:53:37Z</time>
      </trkpt>
      <trkpt lat="43.69424" lon="1.47853">
        <ele>199</ele>
        <time>2022-10-08T12:53:40Z</time>
      </trkpt>
      <trkpt lat="43.69426" lon="1.47835">
        <ele>198</ele>
        <time>2022-10-08T12:53:44Z</time>
      </trkpt>
      <trkpt lat="43.69431" lon="1.47802">
        <ele>198</ele>
        <time>2022-10-08T12:53:52Z</time>
      </trkpt>
      <trkpt lat="43.69431" lon="1.47776">
        <ele>198</ele>
        <time>2022-10-08T12:53:59Z</time>
      </trkpt>
      <trkpt lat="43.6942" lon="1.47774">
        <ele>197</ele>
        <time>2022-10-08T12:54:02Z</time>
      </trkpt>
      <trkpt lat="43.69322" lon="1.47777">
        <ele>193</ele>
        <time>2022-10-08T12:54:35Z</time>
      </trkpt>
      <trkpt lat="43.69315" lon="1.47776">
        <ele>193</ele>
        <time>2022-10-08T12:54:37Z</time>
      </trkpt>
      <trkpt lat="43.69306" lon="1.4777">
        <ele>193</ele>
        <time>2022-10-08T12:54:41Z</time>
      </trkpt>
      <trkpt lat="43.69274" lon="1.47732">
        <ele>194</ele>
        <time>2022-10-08T12:54:55Z</time>
      </trkpt>
      <trkpt lat="43.69226" lon="1.47687">
        <ele>192</ele>
        <time>2022-10-08T12:55:14Z</time>
      </trkpt>
      <trkpt lat="43.69204" lon="1.4767">
        <ele>190</ele>
        <time>2022-10-08T12:55:22Z</time>
      </trkpt>
      <trkpt lat="43.69178" lon="1.47649">
        <ele>187</ele>
        <time>2022-10-08T12:55:32Z</time>
      </trkpt>
      <trkpt lat="43.69161" lon="1.4763">
        <ele>186</ele>
        <time>2022-10-08T12:55:40Z</time>
      </trkpt>
      <trkpt lat="43.69147" lon="1.4761">
        <ele>185</ele>
        <time>2022-10-08T12:55:47Z</time>
      </trkpt>
      <trkpt lat="43.69138" lon="1.47587">
        <ele>184</ele>
        <time>2022-10-08T12:55:53Z</time>
      </trkpt>
      <trkpt lat="43.69131" lon="1.47564">
        <ele>184</ele>
        <time>2022-10-08T12:55:59Z</time>
      </trkpt>
      <trkpt lat="43.69107" lon="1.4747">
        <ele>182</ele>
        <time>2022-10-08T12:56:23Z</time>
      </trkpt>
      <trkpt lat="43.69064" lon="1.47391">
        <ele>175</ele>
        <time>2022-10-08T12:56:47Z</time>
      </trkpt>
      <trkpt lat="43.69055" lon="1.47374">
        <ele>174</ele>
        <time>2022-10-08T12:56:52Z</time>
      </trkpt>
      <trkpt lat="43.69047" lon="1.47359">
        <ele>174</ele>
        <time>2022-10-08T12:56:56Z</time>
      </trkpt>
      <trkpt lat="43.69015" lon="1.473">
        <ele>175</ele>
        <time>2022-10-08T12:57:14Z</time>
      </trkpt>
      <trkpt lat="43.69005" lon="1.47305">
        <ele>175</ele>
        <time>2022-10-08T12:57:18Z</time>
      </trkpt>
      <trkpt lat="43.68947" lon="1.47425">
        <ele>178</ele>
        <time>2022-10-08T12:57:52Z</time>
      </trkpt>
      <trkpt lat="43.68941" lon="1.47432">
        <ele>178</ele>
        <time>2022-10-08T12:57:55Z</time>
      </trkpt>
      <trkpt lat="43.68937" lon="1.47434">
        <ele>178</ele>
        <time>2022-10-08T12:57:57Z</time>
      </trkpt>
      <trkpt lat="43.68934" lon="1.47445">
        <ele>179</ele>
        <time>2022-10-08T12:57:59Z</time>
      </trkpt>
      <trkpt lat="43.68923" lon="1.47465">
        <ele>180</ele>
        <time>2022-10-08T12:58:05Z</time>
      </trkpt>
      <trkpt lat="43.68886" lon="1.47523">
        <ele>182</ele>
        <time>2022-10-08T12:58:24Z</time>
      </trkpt>
      <trkpt lat="43.68873" lon="1.47537">
        <ele>183</ele>
        <time>2022-10-08T12:58:30Z</time>
      </trkpt>
      <trkpt lat="43.68853" lon="1.47556">
        <ele>184</ele>
        <time>2022-10-08T12:58:38Z</time>
      </trkpt>
      <trkpt lat="43.68759" lon="1.47617">
        <ele>188</ele>
        <time>2022-10-08T12:59:12Z</time>
      </trkpt>
      <trkpt lat="43.68666" lon="1.47683">
        <ele>189</ele>
        <time>2022-10-08T12:59:47Z</time>
      </trkpt>
      <trkpt lat="43.68643" lon="1.47701">
        <ele>189</ele>
        <time>2022-10-08T12:59:56Z</time>
      </trkpt>
      <trkpt lat="43.68617" lon="1.47716">
        <ele>190</ele>
        <time>2022-10-08T13:00:05Z</time>
      </trkpt>
      <trkpt lat="43.68534" lon="1.47741">
        <ele>194</ele>
        <time>2022-10-08T13:00:34Z</time>
      </trkpt>
      <trkpt lat="43.68522" lon="1.47748">
        <ele>194</ele>
        <time>2022-10-08T13:00:38Z</time>
      </trkpt>
      <trkpt lat="43.68514" lon="1.47758">
        <ele>195</ele>
        <time>2022-10-08T13:00:42Z</time>
      </trkpt>
      <trkpt lat="43.68501" lon="1.47746">
        <ele>195</ele>
        <time>2022-10-08T13:00:47Z</time>
      </trkpt>
      <trkpt lat="43.68493" lon="1.47746">
        <ele>195</ele>
        <time>2022-10-08T13:00:50Z</time>
      </trkpt>
      <trkpt lat="43.6845" lon="1.47758">
        <ele>198</ele>
        <time>2022-10-08T13:01:04Z</time>
      </trkpt>
      <trkpt lat="43.68416" lon="1.4777">
        <ele>200</ele>
        <time>2022-10-08T13:01:16Z</time>
      </trkpt>
      <trkpt lat="43.68378" lon="1.47772">
        <ele>200</ele>
        <time>2022-10-08T13:01:29Z</time>
      </trkpt>
      <trkpt lat="43.68334" lon="1.4777">
        <ele>201</ele>
        <time>2022-10-08T13:01:43Z</time>
      </trkpt>
      <trkpt lat="43.68257" lon="1.47765">
        <ele>204</ele>
        <time>2022-10-08T13:02:09Z</time>
      </trkpt>
      <trkpt lat="43.68188" lon="1.47758">
        <ele>204</ele>
        <time>2022-10-08T13:02:32Z</time>
      </trkpt>
      <trkpt lat="43.68186" lon="1.47766">
        <ele>204</ele>
        <time>2022-10-08T13:02:34Z</time>
      </trkpt>
      <trkpt lat="43.68272" lon="1.47463">
        <ele>203</ele>
        <time>2022-10-08T13:03:53Z</time>
      </trkpt>
      <trkpt lat="43.68293" lon="1.47365">
        <ele>202</ele>
        <time>2022-10-08T13:04:17Z</time>
      </trkpt>
      <trkpt lat="43.68324" lon="1.47264">
        <ele>200</ele>
        <time>2022-10-08T13:04:44Z</time>
      </trkpt>
      <trkpt lat="43.68332" lon="1.47233">
        <ele>201</ele>
        <time>2022-10-08T13:04:52Z</time>
      </trkpt>
      <trkpt lat="43.68339" lon="1.47198">
        <ele>201</ele>
        <time>2022-10-08T13:05:00Z</time>
      </trkpt>
      <trkpt lat="43.68352" lon="1.47101">
        <ele>199</ele>
        <time>2022-10-08T13:05:24Z</time>
      </trkpt>
      <trkpt lat="43.68372" lon="1.46973">
        <ele>194</ele>
        <time>2022-10-08T13:05:56Z</time>
      </trkpt>
      <trkpt lat="43.6838" lon="1.4695">
        <ele>194</ele>
        <time>2022-10-08T13:06:02Z</time>
      </trkpt>
      <trkpt lat="43.6839" lon="1.46929">
        <ele>194</ele>
        <time>2022-10-08T13:06:08Z</time>
      </trkpt>
      <trkpt lat="43.68426" lon="1.46868">
        <ele>192</ele>
        <time>2022-10-08T13:06:27Z</time>
      </trkpt>
      <trkpt lat="43.68459" lon="1.46815">
        <ele>191</ele>
        <time>2022-10-08T13:06:44Z</time>
      </trkpt>
      <trkpt lat="43.68468" lon="1.46806">
        <ele>190</ele>
        <time>2022-10-08T13:06:48Z</time>
      </trkpt>
      <trkpt lat="43.68479" lon="1.46799">
        <ele>190</ele>
        <time>2022-10-08T13:06:52Z</time>
      </trkpt>
      <trkpt lat="43.68492" lon="1.46797">
        <ele>191</ele>
        <time>2022-10-08T13:06:56Z</time>
      </trkpt>
      <trkpt lat="43.68507" lon="1.46798">
        <ele>191</ele>
        <time>2022-10-08T13:07:01Z</time>
      </trkpt>
      <trkpt lat="43.68514" lon="1.46801">
        <ele>191</ele>
        <time>2022-10-08T13:07:04Z</time>
      </trkpt>
      <trkpt lat="43.68524" lon="1.46811">
        <ele>192</ele>
        <time>2022-10-08T13:07:08Z</time>
      </trkpt>
      <trkpt lat="43.68553" lon="1.46864">
        <ele>193</ele>
        <time>2022-10-08T13:07:24Z</time>
      </trkpt>
      <trkpt lat="43.68555" lon="1.46883">
        <ele>194</ele>
        <time>2022-10-08T13:07:28Z</time>
      </trkpt>
      <trkpt lat="43.68552" lon="1.46908">
        <ele>195</ele>
        <time>2022-10-08T13:07:34Z</time>
      </trkpt>
      <trkpt lat="43.68554" lon="1.46917">
        <ele>195</ele>
        <time>2022-10-08T13:07:37Z</time>
      </trkpt>
      <trkpt lat="43.68598" lon="1.46971">
        <ele>193</ele>
        <time>2022-10-08T13:07:56Z</time>
      </trkpt>
      <trkpt lat="43.6862" lon="1.47006">
        <ele>191</ele>
        <time>2022-10-08T13:08:08Z</time>
      </trkpt>
      <trkpt lat="43.68682" lon="1.47086">
        <ele>188</ele>
        <time>2022-10-08T13:08:36Z</time>
      </trkpt>
      <trkpt lat="43.68696" lon="1.47102">
        <ele>187</ele>
        <time>2022-10-08T13:08:42Z</time>
      </trkpt>
      <trkpt lat="43.68702" lon="1.47104">
        <ele>187</ele>
        <time>2022-10-08T13:08:44Z</time>
      </trkpt>
      <trkpt lat="43.68709" lon="1.471">
        <ele>186</ele>
        <time>2022-10-08T13:08:46Z</time>
      </trkpt>
      <trkpt lat="43.68717" lon="1.47091">
        <ele>186</ele>
        <time>2022-10-08T13:08:50Z</time>
      </trkpt>
      <trkpt lat="43.68748" lon="1.47037">
        <ele>184</ele>
        <time>2022-10-08T13:09:07Z</time>
      </trkpt>
      <trkpt lat="43.68755" lon="1.47033">
        <ele>184</ele>
        <time>2022-10-08T13:09:09Z</time>
      </trkpt>
      <trkpt lat="43.6876" lon="1.47032">
        <ele>184</ele>
        <time>2022-10-08T13:09:11Z</time>
      </trkpt>
      <trkpt lat="43.68768" lon="1.47036">
        <ele>183</ele>
        <time>2022-10-08T13:09:14Z</time>
      </trkpt>
      <trkpt lat="43.68789" lon="1.47055">
        <ele>183</ele>
        <time>2022-10-08T13:09:22Z</time>
      </trkpt>
      <trkpt lat="43.68801" lon="1.47069">
        <ele>182</ele>
        <time>2022-10-08T13:09:27Z</time>
      </trkpt>
      <trkpt lat="43.68807" lon="1.47078">
        <ele>182</ele>
        <time>2022-10-08T13:09:30Z</time>
      </trkpt>
      <trkpt lat="43.6882" lon="1.47107">
        <ele>180</ele>
        <time>2022-10-08T13:09:38Z</time>
      </trkpt>
      <trkpt lat="43.68829" lon="1.47119">
        <ele>180</ele>
        <time>2022-10-08T13:09:43Z</time>
      </trkpt>
      <trkpt lat="43.68852" lon="1.47142">
        <ele>178</ele>
        <time>2022-10-08T13:09:52Z</time>
      </trkpt>
      <trkpt lat="43.6893" lon="1.47233">
        <ele>179</ele>
        <time>2022-10-08T13:10:26Z</time>
      </trkpt>
      <trkpt lat="43.68937" lon="1.47245">
        <ele>179</ele>
        <time>2022-10-08T13:10:30Z</time>
      </trkpt>
      <trkpt lat="43.6894" lon="1.47256">
        <ele>179</ele>
        <time>2022-10-08T13:10:33Z</time>
      </trkpt>
      <trkpt lat="43.6894" lon="1.47266">
        <ele>179</ele>
        <time>2022-10-08T13:10:35Z</time>
      </trkpt>
      <trkpt lat="43.68939" lon="1.47277">
        <ele>179</ele>
        <time>2022-10-08T13:10:38Z</time>
      </trkpt>
      <trkpt lat="43.68907" lon="1.47347">
        <ele>182</ele>
        <time>2022-10-08T13:10:58Z</time>
      </trkpt>
      <trkpt lat="43.68902" lon="1.47363">
        <ele>181</ele>
        <time>2022-10-08T13:11:02Z</time>
      </trkpt>
      <trkpt lat="43.68901" lon="1.47373">
        <ele>181</ele>
        <time>2022-10-08T13:11:04Z</time>
      </trkpt>
      <trkpt lat="43.68902" lon="1.47382">
        <ele>181</ele>
        <time>2022-10-08T13:11:06Z</time>
      </trkpt>
      <trkpt lat="43.68907" lon="1.47391">
        <ele>181</ele>
        <time>2022-10-08T13:11:09Z</time>
      </trkpt>
      <trkpt lat="43.68928" lon="1.4741">
        <ele>179</ele>
        <time>2022-10-08T13:11:18Z</time>
      </trkpt>
      <trkpt lat="43.68936" lon="1.47425">
        <ele>178</ele>
        <time>2022-10-08T13:11:22Z</time>
      </trkpt>
      <trkpt lat="43.68937" lon="1.47434">
        <ele>178</ele>
        <time>2022-10-08T13:11:24Z</time>
      </trkpt>
      <trkpt lat="43.68941" lon="1.47432">
        <ele>178</ele>
        <time>2022-10-08T13:11:26Z</time>
      </trkpt>
      <trkpt lat="43.68947" lon="1.47425">
        <ele>178</ele>
        <time>2022-10-08T13:11:28Z</time>
      </trkpt>
      <trkpt lat="43.69005" lon="1.47305">
        <ele>175</ele>
        <time>2022-10-08T13:12:03Z</time>
      </trkpt>
      <trkpt lat="43.69015" lon="1.473">
        <ele>175</ele>
        <time>2022-10-08T13:12:07Z</time>
      </trkpt>
      <trkpt lat="43.69047" lon="1.47359">
        <ele>174</ele>
        <time>2022-10-08T13:12:24Z</time>
      </trkpt>
      <trkpt lat="43.69055" lon="1.47374">
        <ele>174</ele>
        <time>2022-10-08T13:12:29Z</time>
      </trkpt>
      <trkpt lat="43.69064" lon="1.47391">
        <ele>175</ele>
        <time>2022-10-08T13:12:34Z</time>
      </trkpt>
      <trkpt lat="43.69107" lon="1.4747">
        <ele>182</ele>
        <time>2022-10-08T13:12:58Z</time>
      </trkpt>
      <trkpt lat="43.69131" lon="1.47564">
        <ele>184</ele>
        <time>2022-10-08T13:13:22Z</time>
      </trkpt>
      <trkpt lat="43.69138" lon="1.47587">
        <ele>184</ele>
        <time>2022-10-08T13:13:28Z</time>
      </trkpt>
      <trkpt lat="43.69147" lon="1.4761">
        <ele>185</ele>
        <time>2022-10-08T13:13:34Z</time>
      </trkpt>
      <trkpt lat="43.69161" lon="1.4763">
        <ele>186</ele>
        <time>2022-10-08T13:13:41Z</time>
      </trkpt>
      <trkpt lat="43.69178" lon="1.47649">
        <ele>187</ele>
        <time>2022-10-08T13:13:48Z</time>
      </trkpt>
      <trkpt lat="43.69204" lon="1.4767">
        <ele>190</ele>
        <time>2022-10-08T13:13:58Z</time>
      </trkpt>
      <trkpt lat="43.69226" lon="1.47687">
        <ele>192</ele>
        <time>2022-10-08T13:14:07Z</time>
      </trkpt>
      <trkpt lat="43.69274" lon="1.47732">
        <ele>194</ele>
        <time>2022-10-08T13:14:26Z</time>
      </trkpt>
      <trkpt lat="43.69306" lon="1.4777">
        <ele>193</ele>
        <time>2022-10-08T13:14:40Z</time>
      </trkpt>
      <trkpt lat="43.69315" lon="1.47776">
        <ele>193</ele>
        <time>2022-10-08T13:14:44Z</time>
      </trkpt>
      <trkpt lat="43.69322" lon="1.47777">
        <ele>193</ele>
        <time>2022-10-08T13:14:46Z</time>
      </trkpt>
      <trkpt lat="43.6942" lon="1.47774">
        <ele>197</ele>
        <time>2022-10-08T13:15:19Z</time>
      </trkpt>
      <trkpt lat="43.69431" lon="1.47776">
        <ele>198</ele>
        <time>2022-10-08T13:15:22Z</time>
      </trkpt>
      <trkpt lat="43.69439" lon="1.4777">
        <ele>199</ele>
        <time>2022-10-08T13:15:25Z</time>
      </trkpt>
      <trkpt lat="43.69478" lon="1.47683">
        <ele>205</ele>
        <time>2022-10-08T13:15:50Z</time>
      </trkpt>
      <trkpt lat="43.69496" lon="1.47589">
        <ele>207</ele>
        <time>2022-10-08T13:16:13Z</time>
      </trkpt>
      <trkpt lat="43.69541" lon="1.47505">
        <ele>209</ele>
        <time>2022-10-08T13:16:39Z</time>
      </trkpt>
      <trkpt lat="43.69572" lon="1.47539">
        <ele>210</ele>
        <time>2022-10-08T13:16:52Z</time>
      </trkpt>
      <trkpt lat="43.69577" lon="1.47548">
        <ele>210</ele>
        <time>2022-10-08T13:16:55Z</time>
      </trkpt>
      <trkpt lat="43.69581" lon="1.47557">
        <ele>210</ele>
        <time>2022-10-08T13:16:57Z</time>
      </trkpt>
      <trkpt lat="43.69587" lon="1.47593">
        <ele>210</ele>
        <time>2022-10-08T13:17:06Z</time>
      </trkpt>
      <trkpt lat="43.69599" lon="1.47638">
        <ele>210</ele>
        <time>2022-10-08T13:17:18Z</time>
      </trkpt>
      <trkpt lat="43.69613" lon="1.47666">
        <ele>210</ele>
        <time>2022-10-08T13:17:26Z</time>
      </trkpt>
      <trkpt lat="43.69628" lon="1.477">
        <ele>211</ele>
        <time>2022-10-08T13:17:35Z</time>
      </trkpt>
      <trkpt lat="43.69647" lon="1.47751">
        <ele>212</ele>
        <time>2022-10-08T13:17:49Z</time>
      </trkpt>
      <trkpt lat="43.69655" lon="1.47768">
        <ele>212</ele>
        <time>2022-10-08T13:17:54Z</time>
      </trkpt>
      <trkpt lat="43.69707" lon="1.47826">
        <ele>211</ele>
        <time>2022-10-08T13:18:16Z</time>
      </trkpt>
      <trkpt lat="43.69687" lon="1.47895">
        <ele>211</ele>
        <time>2022-10-08T13:18:34Z</time>
      </trkpt>
      <trkpt lat="43.69672" lon="1.47938">
        <ele>211</ele>
        <time>2022-10-08T13:18:46Z</time>
      </trkpt>
      <trkpt lat="43.69668" lon="1.47955">
        <ele>211</ele>
        <time>2022-10-08T13:18:50Z</time>
      </trkpt>
      <trkpt lat="43.69653" lon="1.48018">
        <ele>211</ele>
        <time>2022-10-08T13:19:06Z</time>
      </trkpt>
    </trkseg>
  </trk>
</gpx>